logo



Minimumtemperatur heute 0.0     Maximumtemperatur heute 0.0
Datum Zeit
MEZ
Lufttemperatur
C
Windrichtung
Grad
Wind Mittel
Km/h
Wind Min
Km/h
Wind Max
Km/h
rel. Feuchte
%
2018-02-22 11:10:00 0.0 78 1.0 0.0 11.8 0
2018-02-22 11:05:00 0.0 64 0.6 0.2 8.6 0
2018-02-22 11:00:00 0.0 85 0.8 0.4 9.8 0
2018-02-22 10:55:00 0.0 88 1.0 1.0 6.9 0
2018-02-22 10:50:00 0.0 75 1.0 1.2 12.5 0
2018-02-22 10:45:00 0.0 73 1.1 0.7 8.5 0
2018-02-22 10:40:00 0.0 94 1.5 0.7 12.1 0
2018-02-22 10:35:00 0.0 83 0.8 0.0 10.0 0
2018-02-22 10:30:00 0.0 97 0.5 0.0 7.9 0
2018-02-22 10:25:00 0.0 92 0.3 0.0 3.6 0
2018-02-22 10:20:00 0.0 121 0.6 0.1 7.2 0
2018-02-22 10:15:00 0.0 90 0.2 0.0 2.5 0
2018-02-22 10:10:00 0.0 86 0.6 0.0 7.8 0
2018-02-22 10:05:00 0.0 73 0.8 0.0 8.8 0
2018-02-22 10:00:00 0.0 91 0.5 0.0 8.6 0
2018-02-22 09:55:00 0.0 89 0.3 0.0 6.7 0
2018-02-22 09:50:00 0.0 78 0.4 0.1 3.7 0
2018-02-22 09:45:00 0.0 81 0.5 0.0 5.4 0
2018-02-22 09:40:00 0.0 95 0.3 0.0 4.2 0
2018-02-22 09:35:00 0.0 89 0.2 0.0 4.0 0
2018-02-22 09:30:00 0.0 80 0.6 0.1 6.2 0
2018-02-22 09:25:00 0.0 90 0.4 0.0 6.1 0
2018-02-22 09:20:00 0.0 91 0.2 0.0 3.0 0
2018-02-22 09:15:00 0.0 77 0.5 0.0 5.0 0
2018-02-22 09:10:00 0.0 104 0.2 0.0 3.1 0
2018-02-22 09:05:00 0.0 50 0.1 0.0 1.4 0
2018-02-22 09:00:00 0.0 84 0.3 0.0 4.0 0
2018-02-22 08:55:00 0.0 78 0.2 0.0 2.9 0
2018-02-22 08:50:00 0.0 65 0.1 0.0 2.3 0
2018-02-22 08:45:00 0.0 36 0.0 0.0 1.2 0
2018-02-22 08:40:00 0.0 90 0.0 0.0 1.0 0
2018-02-22 08:35:00 0.0 110 0.0 0.0 1.0 0
2018-02-22 08:30:00 0.0 110 0.0 0.0 0.2 0
2018-02-22 08:25:00 0.0 136 0.0 0.0 0.2 0
2018-02-22 08:20:00 0.0 123 0.0 0.0 0.9 0
2018-02-22 08:15:00 0.0 76 0.0 0.0 2.2 0
2018-02-22 08:10:00 0.0 89 0.0 0.0 0.2 0
2018-02-22 08:05:00 0.0 119 0.1 0.0 1.6 0
2018-02-22 08:00:00 0.0 85 0.0 0.0 0.8 0
2018-02-22 07:55:00 0.0 115 0.3 0.0 2.6 0
2018-02-22 07:50:00 0.0 104 0.1 0.0 2.7 0
2018-02-22 07:45:00 0.0 111 0.1 0.0 1.7 0
2018-02-22 07:40:00 0.0 78 0.0 0.0 0.1 0
2018-02-22 07:35:00 0.0 103 0.0 0.0 0.1 0
2018-02-22 07:30:00 0.0 150 0.3 0.0 2.8 0
2018-02-22 07:25:00 0.0 129 0.0 0.0 1.5 0
2018-02-22 07:20:00 0.0 135 0.0 0.0 0.6 0
2018-02-22 07:15:00 0.0 133 0.0 0.0 0.1 0
2018-02-22 07:10:00 0.0 104 0.0 0.0 0.4 0
2018-02-22 07:05:00 0.0 106 0.1 0.0 1.3 0
2018-02-22 07:00:00 0.0 109 0.1 0.0 2.2 0
2018-02-22 06:55:00 0.0 119 0.1 0.0 2.2 0
2018-02-22 06:50:00 0.0 130 0.0 0.0 1.2 0
2018-02-22 06:45:00 0.0 137 0.0 0.0 1.1 0
2018-02-22 06:40:00 0.0 155 0.1 0.0 1.5 0
2018-02-22 06:35:00 0.0 99 0.3 0.0 2.7 0
2018-02-22 06:30:00 0.0 138 0.0 0.0 0.9 0
2018-02-22 06:25:00 0.0 91 0.2 0.0 1.9 0
2018-02-22 06:20:00 0.0 132 0.0 0.0 0.1 0
2018-02-22 06:15:00 0.0 126 0.0 0.0 0.0 0
2018-02-22 06:10:00 0.0 112 0.0 0.0 0.4 0
2018-02-22 06:05:00 0.0 158 0.0 0.0 0.5 0
2018-02-22 06:00:00 0.0 86 0.2 0.0 3.4 0
2018-02-22 05:55:00 0.0 82 0.1 0.0 1.1 0
2018-02-22 05:50:00 0.0 105 0.3 0.0 4.6 0
2018-02-22 05:45:00 0.0 138 0.2 0.2 1.8 0
2018-02-22 05:40:00 0.0 121 0.2 0.2 2.0 0
2018-02-22 05:35:00 0.0 101 0.2 0.0 2.0 0
2018-02-22 05:30:00 0.0 100 0.2 0.0 2.4 0
2018-02-22 05:25:00 0.0 104 0.0 0.0 0.9 0
2018-02-22 05:20:00 0.0 117 0.1 0.0 1.7 0
2018-02-22 05:15:00 0.0 113 0.1 0.0 1.2 0
2018-02-22 05:10:00 0.0 94 0.1 0.0 2.1 0
2018-02-22 05:05:00 0.0 77 0.1 0.0 1.3 0
2018-02-22 05:00:00 0.0 78 0.2 0.0 2.6 0
2018-02-22 04:55:00 0.0 87 0.4 0.0 4.6 0
2018-02-22 04:50:00 0.0 90 0.2 0.0 2.6 0
2018-02-22 04:45:00 0.0 80 0.2 0.0 4.8 0
2018-02-22 04:40:00 0.0 94 0.3 0.0 3.2 0
2018-02-22 04:35:00 0.0 93 0.2 0.1 2.1 0
2018-02-22 04:30:00 0.0 128 0.1 0.0 1.6 0
2018-02-22 04:25:00 0.0 97 0.2 0.0 2.7 0
2018-02-22 04:20:00 0.0 65 0.0 0.0 1.0 0
2018-02-22 04:15:00 0.0 91 0.0 0.0 0.2 0
2018-02-22 04:10:00 0.0 91 0.0 0.0 0.5 0
2018-02-22 04:05:00 0.0 65 0.0 0.0 0.5 0
2018-02-22 04:00:00 0.0 79 0.0 0.0 0.4 0
2018-02-22 03:55:00 0.0 66 0.1 0.0 2.2 0
2018-02-22 03:50:00 0.0 82 0.0 0.0 0.5 0
2018-02-22 03:45:00 0.0 96 0.1 0.0 2.0 0
2018-02-22 03:40:00 0.0 105 0.2 0.0 2.3 0
2018-02-22 03:35:00 0.0 109 0.1 0.0 1.2 0
2018-02-22 03:30:00 0.0 103 0.1 0.0 1.1 0
2018-02-22 03:25:00 0.0 99 0.1 0.0 1.4 0
2018-02-22 03:20:00 0.0 79 0.1 0.0 1.8 0
2018-02-22 03:15:00 0.0 45 0.0 0.0 0.2 0
2018-02-22 03:10:00 0.0 48 0.0 0.0 0.0 0
2018-02-22 03:05:00 0.0 47 0.0 0.0 0.2 0
2018-02-22 03:00:00 0.0 59 0.0 0.0 0.8 0
2018-02-22 02:55:00 0.0 122 0.1 0.0 0.7 0
2018-02-22 02:50:00 0.0 135 0.2 0.3 1.0 0
2018-02-22 02:45:00 0.0 142 0.0 0.0 0.5 0
2018-02-22 02:40:00 0.0 137 0.0 0.0 0.3 0
2018-02-22 02:35:00 0.0 102 0.0 0.0 0.1 0
2018-02-22 02:30:00 0.0 94 0.1 0.0 1.1 0
2018-02-22 02:25:00 0.0 58 0.3 0.0 2.9 0
2018-02-22 02:20:00 0.0 49 0.1 0.0 0.8 0
2018-02-22 02:15:00 0.0 109 0.0 0.0 0.7 0
2018-02-22 02:10:00 0.0 132 0.0 0.0 0.6 0
2018-02-22 02:05:00 0.0 126 0.0 0.0 0.2 0
2018-02-22 02:00:00 0.0 143 0.0 0.0 0.0 0
2018-02-22 01:55:00 0.0 143 0.0 0.0 0.0 0
2018-02-22 01:50:00 0.0 143 0.0 0.0 0.0 0
2018-02-22 01:45:00 0.0 141 0.0 0.0 0.1 0
2018-02-22 01:40:00 0.0 143 0.0 0.0 0.2 0
2018-02-22 01:35:00 0.0 143 0.1 0.0 0.6 0
2018-02-22 01:30:00 0.0 132 0.1 0.0 1.0 0
2018-02-22 01:25:00 0.0 118 0.0 0.0 1.1 0
2018-02-22 01:20:00 0.0 103 0.1 0.0 1.1 0
2018-02-22 01:15:00 0.0 115 0.1 0.0 0.7 0
2018-02-22 01:10:00 0.0 111 0.0 0.0 0.1 0
2018-02-22 01:05:00 0.0 110 0.0 0.0 0.0 0
2018-02-22 01:00:00 0.0 103 0.0 0.0 0.0 0
2018-02-22 00:55:00 0.0 117 0.0 0.0 0.2 0
2018-02-22 00:50:00 0.0 134 0.0 0.0 0.0 0
2018-02-22 00:45:00 0.0 135 0.0 0.0 0.0 0
2018-02-22 00:40:00 0.0 154 0.0 0.0 0.0 0
2018-02-22 00:35:00 0.0 158 0.0 0.0 0.0 0
2018-02-22 00:30:00 0.0 153 0.0 0.0 0.5 0
2018-02-22 00:25:00 0.0 140 0.0 0.0 0.0 0
2018-02-22 00:20:00 0.0 85 0.0 0.0 0.0 0
2018-02-22 00:15:00 0.0 144 0.0 0.0 0.0 0
2018-02-22 00:10:00 0.0 203 0.0 0.0 0.0 0
2018-02-22 00:05:00 0.0 181 0.0 0.0 0.0 0
2018-02-22 00:00:00 0.0 181 0.0 0.0 0.0 0
www.zamg.ac.at

klagenfurt@zamg.ac.at